createdAt,value
2019-01-16T00:01:43.072Z,94991.36
2019-01-16T00:04:09.051Z,94998.94
2019-01-16T00:06:35.055Z,95002.84
2019-01-16T00:09:01.104Z,95001.09
2019-01-16T00:11:27.098Z,95004.17
2019-01-16T00:13:53.097Z,95012.16
2019-01-16T00:16:19.153Z,95017.48
2019-01-16T00:18:45.151Z,95007.67
2019-01-16T00:21:11.158Z,95001.72
2019-01-16T00:23:37.213Z,95002.93
2019-01-16T00:26:03.204Z,95005.30
2019-01-16T00:28:29.199Z,94997.30
2019-01-16T00:30:55.250Z,94995.98
2019-01-16T00:33:21.310Z,94993.81
2019-01-16T00:35:47.251Z,94990.45
2019-01-16T00:38:13.293Z,94991.69
2019-01-16T00:40:39.287Z,94994.34
2019-01-16T00:43:05.271Z,94988.08
2019-01-16T00:45:31.296Z,94993.81
2019-01-16T00:47:57.282Z,94996.59
2019-01-16T00:50:23.273Z,95000.05
2019-01-16T00:52:49.316Z,94992.60
2019-01-16T00:55:15.320Z,94995.27
2019-01-16T00:57:41.308Z,95001.00
2019-01-16T01:00:07.349Z,95005.08
2019-01-16T01:02:33.410Z,95009.48
2019-01-16T01:04:59.398Z,95013.07
2019-01-16T01:07:25.432Z,95007.74
2019-01-16T01:09:51.428Z,95009.69
2019-01-16T01:12:17.422Z,95000.37
2019-01-16T01:14:43.470Z,95003.45
2019-01-16T01:17:09.472Z,94999.34
2019-01-16T01:19:35.468Z,94993.60
2019-01-16T01:22:01.512Z,94993.22
2019-01-16T01:24:27.500Z,94985.23
2019-01-16T01:26:53.483Z,94988.19
2019-01-16T01:29:19.523Z,94989.22
2019-01-16T01:31:45.527Z,94987.48
2019-01-16T01:34:11.518Z,94985.61
2019-01-16T01:36:37.563Z,94983.70
2019-01-16T01:39:03.546Z,94984.70
2019-01-16T01:41:29.547Z,94972.30
2019-01-16T01:43:55.584Z,94981.23
2019-01-16T01:46:21.577Z,94978.37
2019-01-16T01:48:47.574Z,94972.22
2019-01-16T01:51:13.615Z,94981.83
2019-01-16T01:53:39.598Z,94986.36
2019-01-16T01:56:05.593Z,94983.28
2019-01-16T01:58:31.630Z,94977.95
2019-01-16T02:00:57.617Z,94981.53
2019-01-16T02:03:23.623Z,94986.45
2019-01-16T02:05:49.680Z,94978.37
2019-01-16T02:08:15.669Z,94976.51
2019-01-16T02:10:41.668Z,94971.72
2019-01-16T02:13:07.709Z,94968.11
2019-01-16T02:15:33.752Z,94964.53
2019-01-16T02:17:59.743Z,94961.78
2019-01-16T02:20:25.877Z,94961.36
2019-01-16T02:22:51.843Z,94960.03
2019-01-16T02:25:17.824Z,94960.03
2019-01-16T02:27:43.855Z,94964.53
2019-01-16T02:30:09.849Z,94958.20
2019-01-16T02:32:35.827Z,94960.45
2019-01-16T02:35:01.877Z,94964.86
2019-01-16T02:37:27.867Z,94957.37
2019-01-16T02:39:53.864Z,94956.87
2019-01-16T02:42:19.918Z,94953.59
2019-01-16T02:44:46.043Z,94955.20
2019-01-16T02:47:12.028Z,94958.28
2019-01-16T02:49:38.078Z,94956.04
2019-01-16T02:52:04.068Z,94948.05
2019-01-16T02:54:30.047Z,94951.12
2019-01-16T02:56:56.102Z,94947.14
2019-01-16T02:59:22.081Z,94946.60
2019-01-16T03:01:48.087Z,94941.89
2019-01-16T03:04:14.125Z,94940.98
2019-01-16T03:06:40.106Z,94933.91
2019-01-16T03:09:06.091Z,94936.98
2019-01-16T03:11:32.143Z,94943.77
2019-01-16T03:13:58.147Z,94934.44
2019-01-16T03:16:24.138Z,94934.03
2019-01-16T03:18:50.177Z,94927.38
2019-01-16T03:21:16.187Z,94933.11
2019-01-16T03:23:42.189Z,94933.61
2019-01-16T03:26:08.227Z,94930.03
2019-01-16T03:28:34.229Z,94931.36
2019-01-16T03:31:00.216Z,94927.88
2019-01-16T03:33:26.244Z,94936.27
2019-01-16T03:35:52.227Z,94940.77
2019-01-16T03:38:18.254Z,94948.26
2019-01-16T03:40:44.306Z,94939.35
2019-01-16T03:43:10.298Z,94945.09
2019-01-16T03:45:36.315Z,94948.26
2019-01-16T03:48:02.338Z,94948.67
2019-01-16T03:50:28.335Z,94951.75
2019-01-16T03:52:54.337Z,94949.17
2019-01-16T03:55:20.364Z,94952.66
2019-01-16T03:57:46.355Z,94949.17
2019-01-16T04:00:12.353Z,94948.34
2019-01-16T04:02:38.412Z,94950.09
2019-01-16T04:05:04.397Z,94958.08
2019-01-16T04:07:30.410Z,94956.33
2019-01-16T04:09:56.443Z,94950.92
2019-01-16T04:12:22.438Z,94947.95
2019-01-16T04:14:48.409Z,94951.12
2019-01-16T04:17:14.461Z,94948.76
2019-01-16T04:19:40.455Z,94957.27
2019-01-16T04:22:06.438Z,94954.50
2019-01-16T04:24:32.491Z,94941.69
2019-01-16T04:26:58.535Z,94957.58
2019-01-16T04:29:24.473Z,94961.16
2019-01-16T04:31:50.509Z,94958.08
2019-01-16T04:34:16.497Z,94951.12
2019-01-16T04:36:42.485Z,94945.80
2019-01-16T04:39:08.786Z,94937.89
2019-01-16T04:41:34.764Z,94941.69
2019-01-16T04:44:00.755Z,94939.97
2019-01-16T04:46:26.803Z,94935.15
2019-01-16T04:48:52.794Z,94936.48
2019-01-16T04:51:18.784Z,94939.64
2019-01-16T04:53:44.935Z,94940.77
2019-01-16T04:56:11.061Z,94941.59
2019-01-16T04:58:37.065Z,94940.37
2019-01-16T05:01:03.067Z,94936.47
2019-01-16T05:03:29.072Z,94939.64
2019-01-16T05:05:55.061Z,94942.30
2019-01-16T05:08:21.105Z,94936.38
2019-01-16T05:10:47.112Z,94946.91
2019-01-16T05:13:13.129Z,94944.45
2019-01-16T05:15:39.178Z,94945.37
2019-01-16T05:18:05.160Z,94946.81
2019-01-16T05:20:31.166Z,94957.47
2019-01-16T05:22:57.199Z,94953.55
2019-01-16T05:25:23.200Z,94952.64
2019-01-16T05:27:49.190Z,94957.17
2019-01-16T05:30:15.242Z,94958.50
2019-01-16T05:32:41.254Z,94951.84
2019-01-16T05:35:07.272Z,94953.88
2019-01-16T05:37:33.319Z,94960.83
2019-01-16T05:39:59.309Z,94955.42
2019-01-16T05:42:25.296Z,94948.97
2019-01-16T05:44:51.333Z,94953.46
2019-01-16T05:47:17.338Z,94959.08
2019-01-16T05:49:46.769Z,94960.53
2019-01-16T05:52:09.372Z,94959.48
2019-01-16T05:54:35.414Z,94963.09
2019-01-16T05:57:01.422Z,94962.06
2019-01-16T05:59:27.485Z,94963.81
2019-01-16T06:01:53.461Z,94954.38
2019-01-16T06:04:19.461Z,94961.15
2019-01-16T06:06:45.524Z,94959.20
2019-01-16T06:09:11.529Z,94948.34
2019-01-16T06:11:37.558Z,94952.25
2019-01-16T06:14:03.628Z,94948.64
2019-01-16T06:16:29.617Z,94941.19
2019-01-16T06:18:55.615Z,94935.45
2019-01-16T06:21:21.679Z,94942.10
2019-01-16T06:23:47.666Z,94948.26
2019-01-16T06:26:13.763Z,94948.26
2019-01-16T06:28:39.797Z,94948.76
2019-01-16T06:31:05.790Z,94947.52
2019-01-16T06:33:31.771Z,94947.42
2019-01-16T06:35:57.828Z,94959.58
2019-01-16T06:38:23.871Z,94961.32
2019-01-16T06:40:49.829Z,94963.09
2019-01-16T06:43:15.873Z,94969.30
2019-01-16T06:45:41.866Z,94965.93
2019-01-16T06:48:07.876Z,94969.09
2019-01-16T06:50:33.897Z,94961.20
2019-01-16T06:53:00.076Z,94970.51
2019-01-16T06:55:26.057Z,94971.75
2019-01-16T06:57:52.092Z,94978.49
2019-01-16T07:00:18.142Z,94974.92
2019-01-16T07:02:44.142Z,94981.57
2019-01-16T07:05:10.179Z,94981.69
2019-01-16T07:07:36.195Z,94988.73
2019-01-16T07:10:02.232Z,94988.34
2019-01-16T07:12:28.266Z,94996.41
2019-01-16T07:14:54.262Z,95001.53
2019-01-16T07:17:20.256Z,95003.90
2019-01-16T07:19:46.300Z,95006.56
2019-01-16T07:22:12.294Z,95004.31
2019-01-16T07:24:38.327Z,95000.31
2019-01-16T07:27:04.331Z,95002.86
2019-01-16T07:29:30.394Z,95001.53
2019-01-16T07:31:56.415Z,95010.02
2019-01-16T07:34:22.462Z,95006.56
2019-01-16T07:36:48.469Z,95010.02
2019-01-16T07:39:14.487Z,95016.59
2019-01-16T07:41:40.547Z,95019.25
2019-01-16T07:44:06.562Z,95023.24
2019-01-16T07:46:32.562Z,95024.48
2019-01-16T07:48:58.618Z,95024.98
2019-01-16T07:51:24.609Z,95022.33
2019-01-16T07:53:50.622Z,95019.66
2019-01-16T07:56:16.663Z,95019.66
2019-01-16T07:58:42.662Z,95022.33
2019-01-16T08:01:08.661Z,95014.76
2019-01-16T08:03:34.718Z,95025.81
2019-01-16T08:06:01.654Z,95023.66
2019-01-16T08:08:27.651Z,95024.57
2019-01-16T08:10:53.734Z,95028.06
2019-01-16T08:13:19.730Z,95026.31
2019-01-16T08:15:45.723Z,95027.45
2019-01-16T08:18:11.756Z,95023.04
2019-01-16T08:20:37.783Z,95024.00
2019-01-16T08:23:03.831Z,95024.23
2019-01-16T08:25:29.831Z,95018.48
2019-01-16T08:27:55.833Z,95015.53
2019-01-16T08:30:21.819Z,95022.17
2019-01-16T08:32:47.870Z,95017.47
2019-01-16T08:35:13.863Z,95014.17
2019-01-16T08:37:39.841Z,95023.19
2019-01-16T08:40:05.922Z,95021.36
2019-01-16T08:42:31.884Z,95029.45
2019-01-16T08:44:57.872Z,95022.58
2019-01-16T08:47:23.915Z,95020.65
2019-01-16T08:49:49.889Z,95017.59
2019-01-16T08:52:15.880Z,95014.91
2019-01-16T08:54:41.905Z,95012.86
2019-01-16T08:57:07.905Z,95015.61
2019-01-16T08:59:33.891Z,95017.86
2019-01-16T09:01:59.934Z,95013.06
2019-01-16T09:04:25.929Z,95014.60
2019-01-16T09:06:51.925Z,95003.33
2019-01-16T09:09:18.012Z,95009.36
2019-01-16T09:11:44.013Z,95009.58
2019-01-16T09:14:10.015Z,95014.28
2019-01-16T09:16:36.071Z,95005.38
2019-01-16T09:19:02.051Z,95000.05
2019-01-16T09:21:28.041Z,95000.35
2019-01-16T09:23:54.198Z,95000.05
2019-01-16T09:26:20.178Z,94996.36
2019-01-16T09:28:46.182Z,94999.73
2019-01-16T09:31:12.212Z,95007.52
2019-01-16T09:33:38.198Z,94990.62
2019-01-16T09:36:04.183Z,94994.54
2019-01-16T09:38:30.234Z,94999.75
2019-01-16T09:40:56.232Z,94989.81
2019-01-16T09:43:22.215Z,94972.42
2019-01-16T09:45:48.252Z,94980.82
2019-01-16T09:48:14.264Z,94962.69
2019-01-16T09:50:47.620Z,94968.42
2019-01-16T09:53:06.345Z,94968.31
2019-01-16T09:55:32.478Z,94947.13
2019-01-16T09:57:58.468Z,94953.88
2019-01-16T10:00:24.532Z,94958.20
2019-01-16T10:02:50.528Z,94969.65
2019-01-16T10:05:16.528Z,94959.41
2019-01-16T10:07:42.593Z,94960.66
2019-01-16T10:10:08.589Z,94958.20
2019-01-16T10:12:34.576Z,94959.12
2019-01-16T10:15:00.701Z,94954.39
2019-01-16T10:17:26.658Z,94971.00
2019-01-16T10:19:52.676Z,94965.05
2019-01-16T10:22:18.706Z,94973.75
2019-01-16T10:24:44.739Z,94973.96
2019-01-16T10:27:10.706Z,94962.69
2019-01-16T10:29:36.745Z,94967.22
2019-01-16T10:32:02.744Z,94965.36
2019-01-16T10:34:28.736Z,94963.41
2019-01-16T10:36:54.797Z,94963.73
2019-01-16T10:39:20.787Z,94966.28
2019-01-16T10:41:46.776Z,94974.98
2019-01-16T10:44:12.821Z,94965.98
2019-01-16T10:46:38.864Z,94958.20
2019-01-16T10:49:04.858Z,94954.71
2019-01-16T10:51:30.883Z,94954.00
2019-01-16T10:53:56.886Z,94949.50
2019-01-16T10:56:22.883Z,94939.35
2019-01-16T10:58:48.934Z,94939.35
2019-01-16T11:01:14.932Z,94943.84
2019-01-16T11:03:40.957Z,94938.44
2019-01-16T11:06:06.988Z,94939.23
2019-01-16T11:08:32.965Z,94944.06
2019-01-16T11:10:58.953Z,94947.44
2019-01-16T11:13:28.310Z,94948.67
2019-01-16T11:15:54.193Z,94944.68
2019-01-16T11:18:20.297Z,94948.17
2019-01-16T11:20:46.336Z,94958.30
2019-01-16T11:23:12.345Z,94940.36
2019-01-16T11:25:38.348Z,94956.17
2019-01-16T11:28:04.384Z,94942.31
2019-01-16T11:30:30.372Z,94950.43
2019-01-16T11:32:56.379Z,94950.02
2019-01-16T11:35:22.453Z,94951.14
2019-01-16T11:37:48.454Z,94954.30
2019-01-16T11:40:14.457Z,94951.44
2019-01-16T11:42:40.492Z,94949.19
2019-01-16T11:45:06.481Z,94960.25
2019-01-16T11:47:32.464Z,94963.63
2019-01-16T11:49:58.498Z,94961.17
2019-01-16T11:52:24.483Z,94957.59
2019-01-16T11:54:50.474Z,94960.05
2019-01-16T11:57:16.506Z,94957.27
2019-01-16T11:59:42.505Z,94954.91
2019-01-16T12:02:08.514Z,94947.95
2019-01-16T12:04:34.561Z,94943.03
2019-01-16T12:07:00.566Z,94952.24
2019-01-16T12:09:26.556Z,94942.30
2019-01-16T12:11:52.604Z,94942.50
2019-01-16T12:14:18.590Z,94932.68
2019-01-16T12:16:44.580Z,94931.14
2019-01-16T12:19:10.620Z,94927.05
2019-01-16T12:21:36.622Z,94932.68
2019-01-16T12:24:02.631Z,94930.84
2019-01-16T12:26:28.680Z,94936.27
2019-01-16T12:28:54.667Z,94943.22
2019-01-16T12:31:20.676Z,94938.22
2019-01-16T12:33:46.727Z,94942.71
2019-01-16T12:36:12.728Z,94941.05
2019-01-16T12:38:39.577Z,94951.00
2019-01-16T12:41:06.003Z,94954.17
2019-01-16T12:43:32.069Z,94953.88
2019-01-16T12:45:58.075Z,94963.09
2019-01-16T12:48:24.117Z,94949.97
2019-01-16T12:50:50.128Z,94963.00
2019-01-16T12:53:16.154Z,94962.28
2019-01-16T12:55:42.165Z,94965.45
2019-01-16T12:58:13.349Z,94970.11
2019-01-16T13:00:34.231Z,94963.33
2019-01-16T13:03:00.427Z,94966.58
2019-01-16T13:05:26.427Z,94972.83
2019-01-16T13:07:52.693Z,94975.31
2019-01-16T13:10:19.110Z,94964.86
2019-01-16T13:12:47.819Z,94972.36
2019-01-16T13:15:13.831Z,94962.20
2019-01-16T13:17:40.012Z,94968.86
2019-01-16T13:20:06.025Z,94971.61
2019-01-16T13:22:32.038Z,94969.16
2019-01-16T13:24:58.240Z,94963.29
2019-01-16T13:27:24.414Z,94969.25
2019-01-16T13:29:50.433Z,94978.78
2019-01-16T13:32:16.492Z,94963.00
2019-01-16T13:34:42.482Z,94969.06
2019-01-16T13:37:08.484Z,94972.33
2019-01-16T13:39:34.555Z,94968.63
2019-01-16T13:42:02.469Z,94965.66
2019-01-16T13:44:28.463Z,94952.63
2019-01-16T13:46:54.513Z,94962.37
2019-01-16T13:49:20.563Z,94962.79
2019-01-16T13:51:46.556Z,94955.42
2019-01-16T13:54:12.625Z,94961.75
2019-01-16T13:56:38.660Z,94965.25
2019-01-16T13:59:04.656Z,94962.58
2019-01-16T14:01:30.722Z,94958.79
2019-01-16T14:03:56.739Z,94965.87
2019-01-16T14:06:22.747Z,94972.73
2019-01-16T14:08:48.838Z,94983.61
2019-01-16T14:11:14.810Z,94984.41
2019-01-16T14:13:40.813Z,94990.65
2019-01-16T14:16:09.352Z,94981.73
2019-01-16T14:18:37.314Z,94988.20
2019-01-16T14:21:01.369Z,94987.06
2019-01-16T14:23:28.472Z,94990.27
2019-01-16T14:25:54.471Z,94990.35
2019-01-16T14:28:20.546Z,94993.42
2019-01-16T14:30:46.601Z,94986.17
2019-01-16T14:33:12.616Z,94991.92
2019-01-16T14:35:38.616Z,94984.93
2019-01-16T14:38:05.688Z,94983.19
2019-01-16T14:40:31.686Z,94995.91
2019-01-16T14:42:57.701Z,94998.66
2019-01-16T14:45:23.767Z,94991.38
2019-01-16T14:47:49.756Z,94992.33
2019-01-16T14:50:15.773Z,94990.58
2019-01-16T14:52:41.985Z,94989.54
2019-01-16T14:55:07.984Z,94998.66
2019-01-16T14:57:33.971Z,94989.73
2019-01-16T15:00:00.025Z,94997.84
2019-01-16T15:02:26.027Z,95001.22
2019-01-16T15:04:52.032Z,95005.84
2019-01-16T15:07:18.074Z,95007.38
2019-01-16T15:09:44.080Z,95011.57
2019-01-16T15:12:10.103Z,95011.27
2019-01-16T15:14:36.176Z,95015.47
2019-01-16T15:17:02.182Z,95021.42
2019-01-16T15:19:28.163Z,95017.51
2019-01-16T15:21:54.216Z,95015.47
2019-01-16T15:24:20.232Z,95021.00
2019-01-16T15:26:46.229Z,95014.95
2019-01-16T15:29:12.287Z,95023.95
2019-01-16T15:31:38.276Z,95037.38
2019-01-16T15:34:04.299Z,95038.38
2019-01-16T15:36:30.722Z,95036.25
2019-01-16T15:38:56.740Z,95038.59
2019-01-16T15:41:22.847Z,95039.53
2019-01-16T15:43:49.625Z,95036.12
2019-01-16T15:46:14.980Z,95031.55
2019-01-16T15:48:41.028Z,95031.55
2019-01-16T15:51:07.096Z,95042.20
2019-01-16T15:53:33.110Z,95050.69
2019-01-16T15:55:59.113Z,95056.84
2019-01-16T15:58:25.161Z,95066.16
2019-01-16T16:00:51.273Z,95062.97
2019-01-16T16:03:17.387Z,95057.23
2019-01-16T16:05:43.501Z,95051.91
2019-01-16T16:08:09.687Z,95054.18
2019-01-16T16:10:35.774Z,95054.06
2019-01-16T16:13:01.812Z,95059.69
2019-01-16T16:15:27.900Z,95051.41
2019-01-16T16:17:54.068Z,95062.97
2019-01-16T16:20:20.093Z,95061.14
2019-01-16T16:22:46.102Z,95065.22
2019-01-16T16:25:12.102Z,95065.12
2019-01-16T16:27:38.467Z,95062.88
2019-01-16T16:30:04.480Z,95065.55
2019-01-16T16:32:30.519Z,95059.39
2019-01-16T16:34:56.576Z,95066.88
2019-01-16T16:37:22.579Z,95055.52
2019-01-16T16:39:48.641Z,95055.81
2019-01-16T16:42:14.644Z,95056.73
2019-01-16T16:44:43.204Z,95054.56
2019-01-16T16:47:09.326Z,95053.65
2019-01-16T16:49:35.651Z,95047.11
2019-01-16T16:52:01.675Z,95053.84
2019-01-16T16:54:27.675Z,95048.94
2019-01-16T16:56:53.769Z,95050.47
2019-01-16T16:59:20.040Z,95051.80
2019-01-16T17:01:46.116Z,95054.38
2019-01-16T17:04:12.230Z,95058.96
2019-01-16T17:06:38.217Z,95049.26
2019-01-16T17:09:04.216Z,95069.11
2019-01-16T17:11:30.259Z,95067.28
2019-01-16T17:13:56.336Z,95076.69
2019-01-16T17:16:22.414Z,95070.14
2019-01-16T17:18:48.497Z,95085.59
2019-01-16T17:21:14.677Z,95088.38
2019-01-16T17:23:40.663Z,95092.45
2019-01-16T17:26:06.706Z,95093.28
2019-01-16T17:28:32.713Z,95094.61
2019-01-16T17:30:58.715Z,95085.91
2019-01-16T17:33:24.765Z,95090.32
2019-01-16T17:35:50.773Z,95089.08
2019-01-16T17:38:16.814Z,95094.40
2019-01-16T17:40:42.852Z,95090.52
2019-01-16T17:43:08.871Z,95098.92
2019-01-16T17:45:34.891Z,95101.67
2019-01-16T17:48:00.937Z,95091.44
2019-01-16T17:50:26.941Z,95100.13
2019-01-16T17:52:52.941Z,95100.95
2019-01-16T17:55:19.011Z,95100.55
2019-01-16T17:57:45.031Z,95099.20
2019-01-16T18:00:11.046Z,95103.70
2019-01-16T18:02:37.445Z,95109.78
2019-01-16T18:05:03.742Z,95107.61
2019-01-16T18:07:29.859Z,95109.45
2019-01-16T18:09:56.019Z,95115.30
2019-01-16T18:12:22.034Z,95099.83
2019-01-16T18:14:48.073Z,95105.66
2019-01-16T18:17:14.133Z,95104.32
2019-01-16T18:19:40.152Z,95097.05
2019-01-16T18:22:06.158Z,95109.98
2019-01-16T18:24:32.209Z,95107.11
2019-01-16T18:26:58.259Z,95111.49
2019-01-16T18:29:24.325Z,95111.11
2019-01-16T18:31:50.405Z,95103.92
2019-01-16T18:34:16.389Z,95119.48
2019-01-16T18:36:42.395Z,95127.08
2019-01-16T18:39:08.439Z,95120.63
2019-01-16T18:41:34.478Z,95118.55
2019-01-16T18:44:00.488Z,95127.88
2019-01-16T18:46:26.630Z,95131.36
2019-01-16T18:48:52.556Z,95132.81
2019-01-16T18:51:18.574Z,95140.27
2019-01-16T18:53:44.629Z,95148.38
2019-01-16T18:56:10.650Z,95145.70
2019-01-16T18:58:36.665Z,95143.46
2019-01-16T19:01:02.720Z,95149.17
2019-01-16T19:03:29.051Z,95152.45
2019-01-16T19:05:55.078Z,95160.23
2019-01-16T19:08:21.133Z,95156.86
2019-01-16T19:10:47.119Z,95161.27
2019-01-16T19:13:13.109Z,95157.77
2019-01-16T19:15:39.168Z,95163.52
2019-01-16T19:18:05.202Z,95170.59
2019-01-16T19:20:31.185Z,95179.41
2019-01-16T19:22:58.206Z,95179.08
2019-01-16T19:25:23.232Z,95183.78
2019-01-16T19:27:49.240Z,95187.78
2019-01-16T19:30:15.286Z,95187.89
2019-01-16T19:32:41.292Z,95192.72
2019-01-16T19:35:07.293Z,95185.65
2019-01-16T19:37:33.345Z,95188.31
2019-01-16T19:39:59.354Z,95188.73
2019-01-16T19:42:25.341Z,95192.72
2019-01-16T19:44:51.395Z,95195.05
2019-01-16T19:47:17.451Z,95193.11
2019-01-16T19:49:43.487Z,95205.50
2019-01-16T19:52:09.634Z,95209.50
2019-01-16T19:54:35.685Z,95211.05
2019-01-16T19:57:01.700Z,95207.16
2019-01-16T19:59:27.740Z,95218.22
2019-01-16T20:01:53.742Z,95216.38
2019-01-16T20:04:19.753Z,95216.81
2019-01-16T20:06:45.794Z,95218.02
2019-01-16T20:09:11.852Z,95220.69
2019-01-16T20:11:37.925Z,95225.30
2019-01-16T20:14:03.989Z,95221.91
2019-01-16T20:16:29.987Z,95224.47
2019-01-16T20:18:55.980Z,95228.16
2019-01-16T20:21:22.014Z,95222.33
2019-01-16T20:23:48.033Z,95221.80
2019-01-16T20:26:14.034Z,95228.27
2019-01-16T20:28:40.074Z,95223.88
2019-01-16T20:31:06.088Z,95231.95
2019-01-16T20:33:32.088Z,95235.95
2019-01-16T20:35:58.145Z,95239.66
2019-01-16T20:38:24.172Z,95241.99
2019-01-16T20:40:50.369Z,95242.91
2019-01-16T20:43:16.412Z,95243.86
2019-01-16T20:45:42.427Z,95246.70
2019-01-16T20:48:08.524Z,95250.09
2019-01-16T20:50:34.893Z,95243.02
2019-01-16T20:53:00.996Z,95248.55
2019-01-16T20:55:26.953Z,95246.72
2019-01-16T20:57:53.028Z,95252.04
2019-01-16T21:00:19.018Z,95256.53
2019-01-16T21:02:45.018Z,95259.20
2019-01-16T21:05:11.069Z,95268.54
2019-01-16T21:07:37.057Z,95261.57
2019-01-16T21:10:03.054Z,95265.37
2019-01-16T21:12:29.095Z,95263.54
2019-01-16T21:14:55.106Z,95260.45
2019-01-16T21:17:21.091Z,95261.31
2019-01-16T21:19:47.134Z,95269.80
2019-01-16T21:22:13.131Z,95276.37
2019-01-16T21:24:39.166Z,95272.88
2019-01-16T21:27:05.253Z,95268.37
2019-01-16T21:29:31.198Z,95274.62
2019-01-16T21:31:57.183Z,95260.92
2019-01-16T21:34:23.230Z,95273.10
2019-01-16T21:36:49.210Z,95274.09
2019-01-16T21:39:15.205Z,95289.27
2019-01-16T21:41:41.242Z,95282.83
2019-01-16T21:44:07.245Z,95286.33
2019-01-16T21:46:33.238Z,95287.23
2019-01-16T21:48:59.279Z,95285.83
2019-01-16T21:51:25.278Z,95292.48
2019-01-16T21:53:51.277Z,95289.60
2019-01-16T21:56:17.316Z,95288.79
2019-01-16T21:58:43.388Z,95287.05
2019-01-16T22:01:09.385Z,95282.75
2019-01-16T22:03:35.433Z,95291.04
2019-01-16T22:06:01.446Z,95290.03
2019-01-16T22:08:27.426Z,95287.66
2019-01-16T22:10:53.458Z,95279.86
2019-01-16T22:13:19.445Z,95273.70
2019-01-16T22:15:45.429Z,95279.03
2019-01-16T22:18:11.484Z,95279.56
2019-01-16T22:20:37.462Z,95271.66
2019-01-16T22:23:03.462Z,95279.64
2019-01-16T22:25:29.495Z,95281.59
2019-01-16T22:27:55.485Z,95279.95
2019-01-16T22:30:21.491Z,95282.80
2019-01-16T22:32:47.527Z,95281.59
2019-01-16T22:35:13.521Z,95277.48
2019-01-16T22:37:39.517Z,95283.42
2019-01-16T22:40:05.557Z,95283.53
2019-01-16T22:42:31.557Z,95281.69
2019-01-16T22:44:57.546Z,95281.22
2019-01-16T22:47:23.591Z,95269.31
2019-01-16T22:49:49.580Z,95277.84
2019-01-16T22:52:15.586Z,95269.42
2019-01-16T22:54:41.631Z,95267.18
2019-01-16T22:57:07.636Z,95273.20
2019-01-16T22:59:33.630Z,95262.97
2019-01-16T23:01:59.654Z,95261.85
2019-01-16T23:04:25.658Z,95269.13
2019-01-16T23:06:51.656Z,95259.98
2019-01-16T23:09:17.673Z,95255.19
2019-01-16T23:11:43.710Z,95265.66
2019-01-16T23:14:09.737Z,95252.83
2019-01-16T23:16:35.743Z,95261.23
2019-01-16T23:19:01.770Z,95255.00
2019-01-16T23:21:27.762Z,95256.83
2019-01-16T23:23:53.753Z,95264.52
2019-01-16T23:26:19.786Z,95262.05
2019-01-16T23:28:45.784Z,95258.03
2019-01-16T23:31:11.785Z,95253.32
2019-01-16T23:33:37.820Z,95252.19
2019-01-16T23:36:03.820Z,95255.03
2019-01-16T23:38:29.818Z,95266.30
2019-01-16T23:40:56.062Z,95263.22
2019-01-16T23:43:22.074Z,95273.49
2019-01-16T23:45:48.053Z,95260.77
2019-01-16T23:48:14.084Z,95267.03
2019-01-16T23:50:40.070Z,95271.95
2019-01-16T23:53:06.528Z,95271.53
2019-01-16T23:55:33.172Z,95271.23
2019-01-16T23:57:59.176Z,95270.89
